Time;durP1;ratioP1;P1;durP2;ratioP2;P2;SDS_P1;SDS_P2;PMS_P1;PMS_P2;Temp;Humidity;BMP_temperature;BMP_pressure;BME280_temperature;BME280_humidity;BME280_pressure;Samples;Min_cycle;Max_cycle;Signal;HPM_P1;HPM_P2
2023/01/14 00:02:15;;;;;;;99.10;46.67;;;;;;;4.49;88.59;95116.72;5024646;28;20228;-77
2023/01/14 00:04:43;;;;;;;112.70;51.23;;;;;;;4.49;88.75;95110.69;5011475;28;20199;-77
2023/01/14 00:07:09;;;;;;;107.87;51.07;;;;;;;4.58;88.56;95125.34;5012469;28;20255;-78
2023/01/14 00:09:34;;;;;;;107.97;50.53;;;;;;;4.64;88.76;95127.25;5012467;28;20259;-77
2023/01/14 00:11:59;;;;;;;102.97;47.10;;;;;;;4.62;88.37;95103.16;5012306;28;20215;-77
2023/01/14 00:14:30;;;;;;;104.17;48.97;;;;;;;4.78;88.15;95118.72;5026002;28;20200;-77
2023/01/14 00:16:56;;;;;;;97.63;50.72;;;;;;;4.81;88.20;95115.78;5031291;28;20519;-77
2023/01/14 00:19:23;;;;;;;91.10;45.27;;;;;;;4.78;88.14;95118.72;5032195;28;20180;-77
2023/01/14 00:21:50;;;;;;;89.13;40.60;;;;;;;4.72;88.43;95108.16;5023984;28;20211;-77
2023/01/14 00:24:18;;;;;;;80.40;36.57;;;;;;;4.80;88.09;95110.75;5012044;28;20647;-77
2023/01/14 00:26:45;;;;;;;91.97;40.90;;;;;;;4.86;87.74;95110.88;5011843;28;20200;-77
2023/01/14 00:29:32;;;;;;;86.70;38.80;;;;;;;4.83;87.27;95106.03;5012036;28;20184;-77
2023/01/14 00:32:00;;;;;;;79.30;37.83;;;;;;;4.84;87.39;95105.00;5011771;28;20222;-77
2023/01/14 00:34:28;;;;;;;85.47;37.10;;;;;;;4.75;87.34;95098.22;5011825;28;20208;-77
2023/01/14 00:36:54;;;;;;;87.33;39.27;;;;;;;4.68;87.72;95102.47;5011892;28;20188;-77
2023/01/14 00:39:20;;;;;;;77.23;36.87;;;;;;;4.73;88.11;95115.00;5010316;28;20275;-77
2023/01/14 00:41:46;;;;;;;78.00;35.83;;;;;;;4.75;87.92;95113.88;5011936;28;20190;-77
2023/01/14 00:44:14;;;;;;;82.87;39.07;;;;;;;4.76;88.09;95099.81;5010578;28;20180;-77
2023/01/14 00:46:41;;;;;;;78.23;37.20;;;;;;;4.70;88.18;95102.31;5011942;28;20667;-77
2023/01/14 00:49:12;;;;;;;78.90;34.57;;;;;;;4.55;88.14;95084.78;5010575;28;20180;-77
2023/01/14 00:51:38;;;;;;;78.73;35.57;;;;;;;4.72;88.17;95108.16;5011779;28;20539;-77
2023/01/14 00:54:04;;;;;;;69.63;35.53;;;;;;;4.46;88.21;95074.53;5009551;28;20450;-77
2023/01/14 00:56:30;;;;;;;78.17;34.30;;;;;;;4.74;88.29;95107.03;5021160;28;20176;-77
2023/01/14 00:58:55;;;;;;;69.50;31.67;;;;;;;4.66;88.28;95101.84;5026931;28;20199;-77
2023/01/14 01:01:21;;;;;;;57.80;28.43;;;;;;;4.70;88.51;95108.34;5011528;28;20296;-77
2023/01/14 01:03:48;;;;;;;70.37;29.80;;;;;;;4.69;88.47;95104.09;5022271;28;20182;-77
2023/01/14 01:06:16;;;;;;;63.50;31.80;;;;;;;4.67;88.88;95118.31;5031265;28;20234;-77
2023/01/14 01:08:42;;;;;;;61.83;29.77;;;;;;;4.75;88.65;95115.66;5031219;28;20206;-77
2023/01/14 01:11:08;;;;;;;59.37;28.93;;;;;;;4.72;88.69;95108.16;5030920;28;20673;-77
2023/01/14 01:13:35;;;;;;;62.50;28.40;;;;;;;4.71;88.71;95106.53;5031115;28;20722;-77
2023/01/14 01:16:06;;;;;;;68.43;31.10;;;;;;;4.77;88.59;95104.06;5011378;28;20215;-77
2023/01/14 01:18:32;;;;;;;60.37;29.07;;;;;;;4.53;88.46;95070.25;5011290;28;20271;-77
2023/01/14 01:21:04;;;;;;;58.87;28.33;;;;;;;4.78;88.67;95103.09;5011031;28;20230;-77
2023/01/14 01:23:30;;;;;;;61.40;30.20;;;;;;;4.82;88.69;95101.78;5011098;28;20263;-77
2023/01/14 01:26:03;;;;;;;57.60;27.20;;;;;;;4.86;88.00;95097.03;5011280;28;20177;-77
2023/01/14 01:28:30;;;;;;;61.13;31.08;;;;;;;4.77;88.42;95079.78;5024683;28;20416;-77
2023/01/14 01:31:12;;;;;;;48.90;24.30;;;;;;;4.89;87.81;95094.09;5013397;28;20275;-77
2023/01/14 01:33:38;;;;;;;50.37;24.20;;;;;;;4.66;87.36;95057.53;5009794;28;20213;-77
2023/01/14 01:36:07;;;;;;;49.30;23.33;;;;;;;4.88;87.22;95095.06;5020667;28;20188;-77
2023/01/14 01:38:33;;;;;;;43.23;21.03;;;;;;;4.70;87.22;95061.41;5030187;28;20176;-77
2023/01/14 01:40:59;;;;;;;40.10;17.93;;;;;;;4.77;86.71;95070.16;5014278;28;20184;-77
2023/01/14 01:43:28;;;;;;;39.50;19.03;;;;;;;4.83;86.33;95084.34;5011116;28;20562;-77
2023/01/14 01:45:56;;;;;;;36.40;17.13;;;;;;;4.81;86.40;95078.47;5011083;28;20679;-77
2023/01/14 01:48:26;;;;;;;36.67;18.00;;;;;;;4.71;86.26;95088.28;5011064;28;20295;-76
2023/01/14 01:51:15;;;;;;;33.03;16.27;;;;;;;4.67;86.29;95079.97;5010772;28;20242;-76
2023/01/14 01:53:43;;;;;;;32.93;17.83;;;;;;;4.61;86.12;95072.84;5010542;28;20211;-75
2023/01/14 01:56:17;;;;;;;30.57;16.37;;;;;;;4.59;86.47;95080.00;5010501;28;20183;-76
2023/01/14 01:58:44;;;;;;;33.37;17.07;;;;;;;4.58;86.38;95080.19;5003213;28;20192;-76
2023/01/14 02:01:10;;;;;;;32.67;16.70;;;;;;;4.47;86.46;95076.16;5010211;28;20220;-76
2023/01/14 02:03:39;;;;;;;35.70;18.60;;;;;;;4.47;86.46;95079.59;5029685;28;20669;-76
2023/01/14 02:06:06;;;;;;;35.83;18.10;;;;;;;4.41;86.94;95076.84;5030237;28;20194;-76
2023/01/14 02:08:33;;;;;;;30.03;16.43;;;;;;;4.41;86.83;95084.66;5030363;28;20255;-76
2023/01/14 02:11:35;;;;;;;38.03;18.67;;;;;;;4.28;87.09;95081.75;5030252;28;20207;-76
2023/01/14 02:14:13;;;;;;;32.10;18.33;;;;;;;4.26;87.40;95084.50;5030198;28;20252;-76
2023/01/14 02:16:47;;;;;;;37.70;18.13;;;;;;;4.27;87.85;95085.31;5030096;28;20182;-76
2023/01/14 02:19:17;;;;;;;43.97;20.23;;;;;;;4.28;87.91;95090.38;5030066;28;20174;-76
2023/01/14 02:22:20;;;;;;;46.87;23.00;;;;;;;4.26;88.01;95081.09;5029923;28;20605;-76
2023/01/14 02:25:15;;;;;;;44.70;19.63;;;;;;;4.14;88.40;95070.22;5030413;28;20286;-76
2023/01/14 02:27:52;;;;;;;49.30;24.10;;;;;;;4.27;88.28;95074.91;5030182;28;20543;-76
2023/01/14 02:30:42;;;;;;;46.67;21.43;;;;;;;4.25;88.27;95076.84;5029968;28;20539;-76
2023/01/14 02:33:35;;;;;;;41.37;20.33;;;;;;;4.17;88.44;95078.50;5029834;28;20179;-76
2023/01/14 02:36:31;;;;;;;39.37;18.50;;;;;;;4.17;88.36;95075.91;5029589;28;20726;-75
2023/01/14 02:39:17;;;;;;;40.70;20.07;;;;;;;4.17;88.63;95075.09;5013148;28;20652;-75
2023/01/14 02:44:42;;;;;;;40.70;19.47;;;;;;;4.22;88.50;95082.41;5010261;28;20672;-76
2023/01/14 02:47:19;;;;;;;49.57;21.47;;;;;;;4.19;88.65;95075.75;5010041;28;20263;-76
2023/01/14 02:49:48;;;;;;;43.67;21.53;;;;;;;4.19;88.07;95083.56;5010659;28;20183;-75
2023/01/14 02:52:13;;;;;;;44.23;20.43;;;;;;;4.12;88.25;95072.19;5012379;28;20208;-76
2023/01/14 02:54:39;;;;;;;40.30;21.63;;;;;;;4.00;88.99;95058.69;5013592;28;20409;-76
2023/01/14 02:57:40;;;;;;;54.47;26.33;;;;;;;4.06;89.46;95081.47;5013617;28;20259;-76
2023/01/14 03:00:13;;;;;;;59.73;26.33;;;;;;;4.11;89.14;95070.53;5010241;28;20191;-76
2023/01/14 03:02:42;;;;;;;71.38;37.90;;;;;;;4.11;89.34;95073.97;5011781;28;20801;-75
2023/01/14 03:05:08;;;;;;;59.30;32.43;;;;;;;4.09;89.64;95075.09;5013309;28;20640;-76
2023/01/14 03:07:52;;;;;;;58.80;31.03;;;;;;;4.10;89.70;95074.13;5013339;28;20187;-76
2023/01/14 03:10:29;;;;;;;61.13;32.73;;;;;;;4.18;89.84;95074.09;5013306;28;20180;-76
2023/01/14 03:13:08;;;;;;;59.93;30.10;;;;;;;4.26;89.74;95083.69;5013365;28;20172;-76
2023/01/14 03:15:39;;;;;;;62.27;30.47;;;;;;;4.21;89.93;95079.00;5013110;28;20214;-75
2023/01/14 03:18:38;;;;;;;52.27;27.27;;;;;;;4.31;89.56;95076.22;5013052;28;20263;-75
2023/01/14 03:21:08;;;;;;;48.47;27.13;;;;;;;4.36;89.27;95072.13;5008477;28;20200;-76
2023/01/14 03:23:39;;;;;;;48.03;26.13;;;;;;;4.37;89.04;95067.72;5013151;28;20184;-76
2023/01/14 03:26:08;;;;;;;53.87;29.23;;;;;;;4.29;89.13;95068.56;5012986;28;20183;-76
2023/01/14 03:28:38;;;;;;;55.27;27.47;;;;;;;4.37;89.23;95070.31;5012923;28;20263;-76
2023/01/14 03:31:09;;;;;;;39.50;18.77;;;;;;;4.35;88.75;95073.09;5012902;28;20192;-76
2023/01/14 03:33:44;;;;;;;32.28;19.40;;;;;;;4.29;89.11;95072.94;5011499;28;20454;-75
2023/01/14 03:36:12;;;;;;;27.53;15.27;;;;;;;4.31;89.42;95058.78;5012986;28;20293;-75
2023/01/14 03:38:49;;;;;;;32.47;16.00;;;;;;;4.30;89.90;95061.56;5012828;28;20268;-76
2023/01/14 03:42:17;;;;;;;33.17;17.57;;;;;;;4.36;89.16;95063.47;5032466;28;20199;-76
2023/01/14 03:44:16;;;;;;;34.10;16.67;;;;;;;4.39;88.85;95058.75;5032478;28;20226;-75
2023/01/14 03:46:42;;;;;;;33.63;16.57;;;;;;;4.31;88.76;95071.00;5032467;28;20242;-75
2023/01/14 03:49:07;;;;;;;29.73;16.63;;;;;;;4.34;89.14;95062.81;5032415;28;20331;-75
2023/01/14 03:51:44;;;;;;;33.50;16.90;;;;;;;4.34;89.06;95057.63;5031107;28;20187;-75
2023/01/14 03:54:26;;;;;;;29.00;16.60;;;;;;;4.42;89.10;95060.19;5032101;28;20207;-75
2023/01/14 03:57:12;;;;;;;29.83;16.57;;;;;;;4.46;88.31;95058.91;5032112;28;20175;-75
2023/01/14 03:59:40;;;;;;;31.37;16.23;;;;;;;4.45;87.98;95062.47;5032416;28;20254;-76
2023/01/14 04:02:08;;;;;;;30.97;15.73;;;;;;;4.34;88.21;95050.63;5031419;28;20243;-75
2023/01/14 04:04:34;;;;;;;32.67;16.30;;;;;;;4.41;88.09;95053.38;5031881;28;20175;-76
2023/01/14 04:06:59;;;;;;;32.47;16.50;;;;;;;4.31;88.10;95066.59;5016995;28;20188;-75
2023/01/14 04:09:25;;;;;;;32.30;17.20;;;;;;;4.17;88.09;95039.44;5012284;28;20999;-75
2023/01/14 04:11:50;;;;;;;27.20;14.80;;;;;;;4.30;87.54;95049.34;5012156;28;20632;-75
2023/01/14 04:16:59;;;;;;;31.90;17.70;;;;;;;3.38;87.38;94923.09;5012049;28;20238;-75
2023/01/14 04:19:26;;;;;;;31.23;17.00;;;;;;;4.13;87.90;95048.56;5011970;28;20676;-75
2023/01/14 04:21:51;;;;;;;31.20;17.27;;;;;;;4.11;87.76;95052.31;5022840;28;20186;-75
2023/01/14 04:24:16;;;;;;;33.20;17.90;;;;;;;4.06;87.61;95050.22;5007831;28;20180;-75
2023/01/14 04:26:42;;;;;;;35.93;19.90;;;;;;;4.02;87.60;95051.53;5011668;28;20564;-75
2023/01/14 04:29:07;;;;;;;35.50;21.17;;;;;;;3.90;88.19;95042.41;5011578;28;20180;-75
2023/01/14 04:31:33;;;;;;;96.50;44.60;;;;;;;3.80;88.59;95042.59;5010394;28;20917;-75
2023/01/14 04:33:58;;;;;;;68.63;40.73;;;;;;;3.73;89.58;95041.63;5010231;28;20434;-75
2023/01/14 04:36:23;;;;;;;57.30;32.03;;;;;;;3.76;89.80;95043.91;5011450;28;20615;-75
2023/01/14 04:38:49;;;;;;;60.77;32.53;;;;;;;3.74;89.82;95050.25;5011714;28;20192;-75
2023/01/14 04:43:59;;;;;;;36.23;19.67;;;;;;;3.69;89.63;95039.53;5011436;28;20264;-75
2023/01/14 04:46:25;;;;;;;33.60;18.93;;;;;;;3.59;89.43;95034.47;5011456;28;20180;-75
2023/01/14 04:48:50;;;;;;;47.63;20.17;;;;;;;3.67;89.42;95050.09;5011612;28;20623;-75
2023/01/14 04:51:16;;;;;;;39.87;21.30;;;;;;;3.64;89.07;95047.00;5011377;28;20214;-75
2023/01/14 04:53:41;;;;;;;35.60;19.63;;;;;;;3.57;89.18;95048.63;5011093;28;20215;-75
2023/01/14 04:56:07;;;;;;;40.33;20.73;;;;;;;3.57;89.01;95046.84;5011199;28;20575;-75
2023/01/14 04:58:32;;;;;;;41.03;20.93;;;;;;;3.57;89.13;95054.66;5010883;28;20179;-75
2023/01/14 05:00:59;;;;;;;40.00;22.17;;;;;;;2.90;88.43;94943.94;5018573;28;20242;-75
2023/01/14 05:03:25;;;;;;;42.27;20.73;;;;;;;3.50;88.77;95055.47;5030309;28;20175;-75
2023/01/14 05:05:50;;;;;;;48.83;25.27;;;;;;;3.50;88.60;95063.28;5015651;28;20701;-75
2023/01/14 05:08:16;;;;;;;44.93;23.47;;;;;;;3.49;88.69;95062.47;5028418;28;20189;-75
2023/01/14 05:10:42;;;;;;;45.20;25.03;;;;;;;3.50;88.51;95058.06;5030646;28;20179;-75
2023/01/14 05:13:07;;;;;;;52.60;29.40;;;;;;;3.49;88.81;95053.84;5030355;28;20960;-75
2023/01/14 05:15:35;;;;;;;51.40;29.17;;;;;;;3.53;88.59;95053.38;5030362;28;20218;-75
2023/01/14 05:18:00;;;;;;;50.37;26.40;;;;;;;3.49;89.06;95054.66;5030638;28;20183;-75
2023/01/14 05:20:27;;;;;;;79.43;40.43;;;;;;;3.49;88.99;95053.84;5028674;28;20190;-75
2023/01/14 05:22:58;;;;;;;79.70;42.83;;;;;;;3.32;89.27;95042.59;5029777;28;20534;-75
2023/01/14 05:25:23;;;;;;;76.73;38.63;;;;;;;3.22;89.18;95028.94;5019538;28;20198;-75
2023/01/14 05:27:48;;;;;;;97.80;47.13;;;;;;;3.35;89.21;95056.13;5030576;28;20292;-75
2023/01/14 05:30:14;;;;;;;119.83;55.90;;;;;;;3.36;88.97;95060.34;5030163;28;20176;-75
2023/01/14 05:32:40;;;;;;;106.37;49.93;;;;;;;3.24;89.15;95066.84;5029963;28;20635;-75
2023/01/14 05:35:06;;;;;;;121.57;56.43;;;;;;;3.25;89.64;95065.84;5029897;28;20583;-75
2023/01/14 05:37:33;;;;;;;126.93;58.77;;;;;;;3.30;90.00;95066.19;5030204;28;20167;-75
2023/01/14 05:39:59;;;;;;;124.10;56.33;;;;;;;3.21;89.93;95071.53;5010690;28;20211;-75
2023/01/14 05:47:56;;;;;;;101.93;50.33;;;;;;;3.39;90.21;95070.41;5013294;28;20294;-76
2023/01/14 05:50:22;;;;;;;61.03;35.57;;;;;;;3.23;90.55;95044.38;5014876;28;20671;-75
2023/01/14 05:52:47;;;;;;;60.73;29.80;;;;;;;3.44;90.42;95071.72;5014153;28;20184;-75
2023/01/14 05:55:12;;;;;;;63.57;33.50;;;;;;;3.16;90.09;95025.22;5018801;28;20247;-75
2023/01/14 05:57:38;;;;;;;84.77;42.00;;;;;;;3.45;90.37;95075.97;5024835;28;20175;-75
2023/01/14 06:00:04;;;;;;;78.17;39.57;;;;;;;3.54;90.49;95073.22;5013814;28;20184;-75
2023/01/14 06:08:00;;;;;;;57.10;29.10;;;;;;;3.64;90.25;95073.84;5030115;28;20681;-76
2023/01/14 06:10:26;;;;;;;53.37;30.07;;;;;;;3.66;90.26;95073.69;5029937;28;20797;-75
2023/01/14 06:12:58;;;;;;;61.63;30.77;;;;;;;3.73;90.27;95067.66;5030137;28;20237;-76
2023/01/14 06:15:33;;;;;;;54.07;27.27;;;;;;;3.84;89.95;95066.50;5029903;28;20200;-75
2023/01/14 06:18:21;;;;;;;58.50;27.40;;;;;;;3.91;89.65;95067.47;5030562;28;20259;-75
2023/01/14 06:20:46;;;;;;;53.27;27.53;;;;;;;3.96;89.14;95070.41;5003417;28;20564;-76
2023/01/14 06:23:13;;;;;;;50.10;27.27;;;;;;;3.85;89.45;95049.91;5010592;28;20195;-75
2023/01/14 06:25:42;;;;;;;50.20;28.03;;;;;;;3.98;89.35;95068.44;5012655;28;20179;-75
2023/01/14 06:28:07;;;;;;;68.67;33.53;;;;;;;4.00;89.55;95068.28;5014499;28;20211;-75
2023/01/14 06:30:32;;;;;;;75.30;37.57;;;;;;;4.02;89.50;95067.16;5022998;28;20904;-76
2023/01/14 06:32:58;;;;;;;60.03;30.77;;;;;;;4.02;89.66;95072.34;5033926;28;20658;-76
2023/01/14 06:35:23;;;;;;;50.07;25.90;;;;;;;4.06;89.68;95071.06;5032605;28;20202;-75
2023/01/14 06:37:49;;;;;;;56.77;29.13;;;;;;;4.15;89.79;95077.84;5034160;28;20202;-76
2023/01/14 06:40:15;;;;;;;56.77;29.27;;;;;;;4.11;89.47;95063.56;5033743;28;20275;-76
2023/01/14 06:42:41;;;;;;;57.27;29.00;;;;;;;4.23;89.61;95077.03;5033518;28;20179;-75
2023/01/14 06:45:11;;;;;;;51.50;27.90;;;;;;;4.32;89.24;95077.84;5032395;28;20222;-76
2023/01/14 06:47:37;;;;;;;70.73;33.67;;;;;;;4.37;89.22;95086.78;5033574;28;20179;-76
2023/01/14 06:50:04;;;;;;;112.90;49.13;;;;;;;4.22;89.15;95067.59;5033470;28;20263;-76
2023/01/14 06:52:30;;;;;;;95.37;45.80;;;;;;;4.31;89.35;95086.63;5033523;28;20172;-76
2023/01/14 06:54:55;;;;;;;84.20;40.60;;;;;;;4.36;89.07;95086.94;5033612;28;20215;-76
2023/01/14 06:57:22;;;;;;;82.93;41.88;;;;;;;4.39;89.76;95084.00;5026078;28;20429;-75
2023/01/14 06:59:48;;;;;;;79.07;39.63;;;;;;;4.44;89.48;95076.50;5013581;28;20230;-75
2023/01/14 07:02:13;;;;;;;78.73;38.00;;;;;;;4.56;89.75;95077.75;5013490;28;20227;-76
2023/01/14 07:04:39;;;;;;;79.83;39.57;;;;;;;4.53;89.80;95055.44;5013567;28;20524;-76
2023/01/14 07:07:05;;;;;;;64.53;29.27;;;;;;;4.68;89.12;95089.44;5013644;28;20259;-76
2023/01/14 07:09:31;;;;;;;51.93;26.47;;;;;;;4.73;89.19;95091.56;5013543;28;20172;-76
2023/01/14 07:11:57;;;;;;;53.70;26.63;;;;;;;4.86;88.54;95087.41;5013496;28;20211;-76
2023/01/14 07:14:22;;;;;;;58.60;26.50;;;;;;;4.95;87.97;95090.78;5013449;28;20649;-76
2023/01/14 07:16:48;;;;;;;51.90;27.40;;;;;;;4.98;88.35;95092.25;5013303;28;20222;-76
2023/01/14 07:19:13;;;;;;;58.50;30.53;;;;;;;5.07;88.14;95089.44;5021889;28;20233;-76
2023/01/14 07:21:39;;;;;;;54.27;28.63;;;;;;;5.13;88.20;95093.97;5003929;28;20514;-76
2023/01/14 07:24:05;;;;;;;41.47;22.17;;;;;;;5.21;88.45;95100.94;5013069;28;20259;-76
2023/01/14 07:26:31;;;;;;;24.17;13.03;;;;;;;5.27;88.00;95098.47;5031097;28;20560;-76
2023/01/14 07:28:56;;;;;;;22.90;11.17;;;;;;;5.40;86.92;95102.28;5032887;28;20237;-76
2023/01/14 07:31:22;;;;;;;21.63;10.47;;;;;;;5.34;85.71;95087.31;5033111;28;20179;-76
2023/01/14 07:33:47;;;;;;;17.20;9.87;;;;;;;5.43;84.78;95096.72;5032695;28;20253;-76
2023/01/14 07:36:13;;;;;;;19.13;9.97;;;;;;;5.50;84.17;95100.28;5017174;28;20181;-75
2023/01/14 07:38:38;;;;;;;27.33;11.00;;;;;;;5.64;84.90;95112.56;5012873;28;20180;-76
2023/01/14 07:41:18;;;;;;;19.20;9.10;;;;;;;5.65;84.26;95109.78;5013021;28;20169;-76
2023/01/14 07:43:48;;;;;;;16.20;8.97;;;;;;;5.68;83.58;95119.88;5012722;28;20643;-76
2023/01/14 07:46:14;;;;;;;16.43;9.00;;;;;;;5.58;83.26;95085.34;5026151;28;20725;-76
2023/01/14 07:48:40;;;;;;;19.50;9.20;;;;;;;5.73;82.81;95095.03;5032469;28;20183;-76
2023/01/14 07:51:08;;;;;;;21.07;9.63;;;;;;;5.93;83.17;95122.34;5032775;28;20306;-76
2023/01/14 07:53:34;;;;;;;19.20;10.57;;;;;;;6.05;83.18;95115.72;5032324;28;20183;-76
2023/01/14 07:56:01;;;;;;;20.17;10.83;;;;;;;6.38;82.64;95111.81;5020512;28;20274;-76
2023/01/14 07:58:26;;;;;;;17.67;10.80;;;;;;;6.66;80.95;95116.44;5012446;28;20180;-76
2023/01/14 08:00:53;;;;;;;17.57;10.03;;;;;;;6.74;80.08;95121.59;5012309;28;20246;-76
2023/01/14 08:03:18;;;;;;;19.37;10.50;;;;;;;6.91;79.68;95120.41;5020816;28;20161;-76
2023/01/14 08:05:44;;;;;;;17.27;10.20;;;;;;;7.00;77.96;95118.50;5019554;28;20258;-76
2023/01/14 08:08:09;;;;;;;18.73;10.73;;;;;;;7.08;78.07;95127.06;5030707;28;20217;-76
2023/01/14 08:10:35;;;;;;;18.87;11.27;;;;;;;7.15;78.36;95120.09;5032109;28;20184;-76
2023/01/14 08:13:01;;;;;;;18.40;10.17;;;;;;;7.29;78.40;95128.09;5031841;28;20183;-74
2023/01/14 08:15:26;;;;;;;22.37;11.57;;;;;;;7.47;77.71;95139.00;5031595;28;20210;-75
2023/01/14 08:17:54;;;;;;;18.73;10.53;;;;;;;7.53;77.04;95138.25;5031852;28;20555;-75
2023/01/14 08:20:22;;;;;;;22.23;11.30;;;;;;;7.75;76.62;95142.53;5031886;28;20208;-74
2023/01/14 08:22:48;;;;;;;20.67;10.43;;;;;;;8.03;75.04;95144.41;5031614;28;20760;-74
2023/01/14 08:25:14;;;;;;;22.17;11.23;;;;;;;8.19;74.54;95142.34;5031382;28;20164;-75
2023/01/14 08:27:39;;;;;;;23.50;11.43;;;;;;;8.56;74.37;95143.84;5031386;28;20247;-75
2023/01/14 08:30:05;;;;;;;23.87;12.33;;;;;;;9.07;72.13;95128.66;5031314;28;20249;-75
2023/01/14 08:32:31;;;;;;;22.90;11.93;;;;;;;9.59;70.90;95136.94;5031215;28;20186;-75
2023/01/14 08:34:56;;;;;;;21.07;11.40;;;;;;;10.04;68.76;95145.91;5031199;28;20209;-75
2023/01/14 08:37:22;;;;;;;23.77;11.80;;;;;;;10.30;67.84;95148.63;5004145;28;20656;-75
2023/01/14 08:39:47;;;;;;;24.80;10.53;;;;;;;10.51;67.64;95150.25;5004752;28;20189;-75
2023/01/14 08:42:13;;;;;;;21.27;11.83;;;;;;;10.53;66.48;95148.22;5000684;28;20172;-75
2023/01/14 08:44:38;;;;;;;24.40;13.40;;;;;;;10.72;66.86;95165.84;5004717;28;20246;-75
2023/01/14 08:47:04;;;;;;;24.77;12.53;;;;;;;10.85;66.63;95160.56;5003324;28;20198;-74
2023/01/14 08:49:31;;;;;;;22.37;13.30;;;;;;;10.97;66.35;95163.38;5005334;28;20184;-75
2023/01/14 08:51:57;;;;;;;30.27;15.23;;;;;;;11.12;65.49;95163.16;5009376;28;20699;-75
2023/01/14 08:54:23;;;;;;;23.63;14.07;;;;;;;11.25;64.14;95163.09;5005324;28;20207;-75
2023/01/14 08:56:48;;;;;;;26.47;14.63;;;;;;;11.56;65.08;95167.66;5002252;28;20189;-75
2023/01/14 08:59:14;;;;;;;27.30;15.03;;;;;;;11.79;62.83;95169.81;5008933;28;20187;-75
2023/01/14 09:01:39;;;;;;;29.00;14.43;;;;;;;11.98;62.30;95161.00;5007386;28;20245;-75
2023/01/14 09:04:05;;;;;;;25.33;13.73;;;;;;;12.15;62.36;95161.31;5007119;28;20175;-75
2023/01/14 09:06:30;;;;;;;22.80;13.13;;;;;;;12.23;60.23;95161.06;5000358;28;20188;-75
2023/01/14 09:17:15;;;;;;;24.00;14.60;;;;;;;11.83;60.34;95144.66;5008329;28;20195;-75
2023/01/14 09:19:46;;;;;;;25.90;13.90;;;;;;;11.68;61.05;95140.41;5001158;28;20199;-75
2023/01/14 09:22:14;;;;;;;31.70;14.10;;;;;;;11.76;60.96;95141.25;5004820;28;20279;-74
2023/01/14 09:24:40;;;;;;;20.50;12.57;;;;;;;11.80;60.88;95139.78;5002475;28;20177;-75
2023/01/14 09:27:05;;;;;;;25.07;12.77;;;;;;;11.86;60.78;95142.38;5002374;28;20197;-75
2023/01/14 09:29:31;;;;;;;24.80;14.67;;;;;;;11.94;60.46;95138.69;5002089;28;20181;-75
2023/01/14 09:31:56;;;;;;;25.40;14.33;;;;;;;11.97;60.12;95144.38;5000209;28;20296;-74
2023/01/14 09:34:22;;;;;;;24.53;13.90;;;;;;;11.74;60.45;95115.06;5003274;28;20236;-75
2023/01/14 09:36:49;;;;;;;26.97;14.77;;;;;;;11.57;60.47;95098.91;5002646;28;20196;-74
2023/01/14 09:39:15;;;;;;;32.27;17.40;;;;;;;11.63;61.64;95127.06;5004214;28;20719;-74
2023/01/14 09:42:21;;;;;;;30.80;18.87;;;;;;;11.43;62.03;95128.16;4999080;28;20192;-75
2023/01/14 09:44:47;;;;;;;33.93;18.70;;;;;;;11.16;62.39;95122.97;4999034;28;20219;-77
2023/01/14 09:47:18;;;;;;;27.83;16.37;;;;;;;10.94;62.92;95119.00;5001368;28;20228;-75
2023/01/14 09:49:44;;;;;;;29.83;17.13;;;;;;;10.75;63.53;95119.84;5003012;28;20180;-75
2023/01/14 09:52:45;;;;;;;32.50;18.40;;;;;;;10.58;64.60;95111.56;5003579;28;20635;-75
2023/01/14 09:55:23;;;;;;;25.47;16.00;;;;;;;10.50;65.33;95115.22;4998800;28;20228;-74
2023/01/14 09:58:00;;;;;;;31.30;16.57;;;;;;;10.42;65.83;95093.56;5000638;28;20223;-74
2023/01/14 10:00:34;;;;;;;24.40;15.53;;;;;;;10.59;65.28;95115.81;4998840;28;20316;-73
2023/01/14 10:03:23;;;;;;;28.47;15.47;;;;;;;10.56;64.52;95116.22;5003758;28;20190;-75
2023/01/14 10:06:13;;;;;;;25.80;15.27;;;;;;;10.46;65.24;95118.47;5003124;28;20188;-74
2023/01/14 10:08:44;;;;;;;29.10;15.27;;;;;;;10.37;66.05;95104.72;5003518;28;20192;-74
2023/01/14 10:11:12;;;;;;;31.77;15.57;;;;;;;10.13;65.58;95077.13;4999887;28;20184;-74
2023/01/14 10:13:53;;;;;;;29.17;16.07;;;;;;;10.31;65.64;95115.22;5004010;28;20283;-74
2023/01/14 10:16:37;;;;;;;25.47;14.07;;;;;;;10.17;65.92;95104.72;5016171;28;20576;-74
2023/01/14 10:19:12;;;;;;;31.90;17.07;;;;;;;9.95;65.69;95105.84;5021003;28;20238;-74
2023/01/14 10:21:40;;;;;;;27.10;15.37;;;;;;;9.49;67.15;95105.78;5029129;28;20194;-74
2023/01/14 10:24:11;;;;;;;29.97;16.83;;;;;;;9.17;68.89;95094.13;5016406;28;20192;-75
2023/01/14 10:26:39;;;;;;;28.40;16.17;;;;;;;9.14;68.94;95093.72;5026831;28;20188;-74
2023/01/14 10:29:17;;;;;;;29.37;15.97;;;;;;;9.11;68.51;95101.97;5019884;28;20180;-75
2023/01/14 10:31:58;;;;;;;30.90;16.77;;;;;;;9.01;69.54;95092.66;5027304;28;20194;-74
2023/01/14 10:34:33;;;;;;;25.50;15.97;;;;;;;9.03;70.26;95088.00;5016093;28;20572;-74
2023/01/14 10:36:59;;;;;;;30.27;16.53;;;;;;;9.12;70.50;95088.66;5024275;28;20225;-74
2023/01/14 10:39:24;;;;;;;27.30;16.93;;;;;;;9.23;69.66;95082.84;5024594;28;20636;-73
2023/01/14 10:41:50;;;;;;;38.67;19.93;;;;;;;9.30;70.00;95083.69;5016035;28;20180;-74
2023/01/14 10:44:27;;;;;;;35.97;19.13;;;;;;;9.33;70.04;95085.09;5028194;28;20200;-74
2023/01/14 10:47:15;;;;;;;29.37;18.37;;;;;;;9.33;70.18;95080.66;5018064;28;20233;-74
2023/01/14 10:49:55;;;;;;;44.90;27.07;;;;;;;9.22;70.58;95081.22;5020806;28;20182;-74
2023/01/14 10:52:28;;;;;;;32.63;19.83;;;;;;;9.19;71.56;95078.97;5013824;28;20187;-74
2023/01/14 10:54:58;;;;;;;27.93;16.37;;;;;;;9.29;70.95;95073.38;5015002;28;20212;-76
2023/01/14 10:57:25;;;;;;;31.10;16.87;;;;;;;9.37;70.70;95070.56;5013239;28;20263;-75
2023/01/14 10:59:53;;;;;;;29.67;17.07;;;;;;;9.25;71.15;95046.69;5012229;28;20180;-75
2023/01/14 11:02:33;;;;;;;31.63;17.73;;;;;;;9.52;70.50;95065.13;5013314;28;20197;-74
2023/01/14 11:05:00;;;;;;;31.87;16.87;;;;;;;9.64;70.63;95066.19;5013020;28;20565;-74
2023/01/14 11:07:29;;;;;;;33.03;18.20;;;;;;;9.73;69.94;95059.72;5012898;28;20215;-75
2023/01/14 11:09:58;;;;;;;36.77;18.67;;;;;;;9.78;69.60;95059.91;5009984;28;20275;-75
2023/01/14 11:12:29;;;;;;;31.43;18.47;;;;;;;9.76;68.50;95059.34;5004786;28;20191;-75
2023/01/14 11:14:55;;;;;;;31.87;14.90;;;;;;;9.75;68.86;95055.91;5008073;28;20222;-75
2023/01/14 11:17:27;;;;;;;30.83;15.97;;;;;;;9.77;67.93;95059.09;5002726;28;20191;-75
2023/01/14 11:20:23;;;;;;;25.03;15.63;;;;;;;9.76;68.34;95060.16;5004723;28;20210;-75
2023/01/14 11:23:00;;;;;;;24.17;15.00;;;;;;;9.74;68.44;95061.34;5003991;28;20219;-75
2023/01/14 11:25:26;;;;;;;24.83;14.57;;;;;;;9.62;67.72;95050.59;4999985;28;20184;-75
2023/01/14 11:27:52;;;;;;;48.07;23.07;;;;;;;9.63;68.08;95061.94;5002428;28;20180;-75
2023/01/14 11:30:20;;;;;;;29.17;15.77;;;;;;;9.61;67.99;95063.94;5000818;28;20185;-75
2023/01/14 11:32:49;;;;;;;24.23;13.53;;;;;;;9.41;68.65;95067.34;5000881;28;20275;-75
2023/01/14 11:35:26;;;;;;;24.27;14.27;;;;;;;9.40;69.23;95065.72;5000556;28;20197;-75
2023/01/14 11:37:56;;;;;;;16.27;9.17;;;;;;;9.42;68.87;95065.53;5002424;28;20242;-75
2023/01/14 11:43:15;;;;;;;14.77;9.27;;;;;;;9.19;68.91;95059.78;5008461;28;20878;-75
2023/01/14 11:45:41;;;;;;;15.43;9.40;;;;;;;9.21;69.91;95055.97;5006162;28;20193;-74
2023/01/14 11:48:26;;;;;;;17.93;11.37;;;;;;;9.26;70.83;95061.44;5000749;28;20629;-75
2023/01/14 11:51:00;;;;;;;20.87;12.53;;;;;;;9.22;69.87;95046.28;4999098;28;20720;-73
2023/01/14 11:53:42;;;;;;;14.87;8.93;;;;;;;9.32;68.93;95071.16;5003237;28;20242;-75
2023/01/14 11:56:19;;;;;;;15.30;8.07;;;;;;;9.34;69.36;95066.50;5003894;28;20224;-75
2023/01/14 11:58:45;;;;;;;15.13;8.43;;;;;;;9.35;69.09;95072.56;5006325;28;20184;-75
2023/01/14 12:01:22;;;;;;;14.13;6.70;;;;;;;9.38;69.07;95069.56;5010608;28;20239;-75
2023/01/14 12:04:16;;;;;;;13.00;7.83;;;;;;;9.39;69.21;95060.66;5011380;28;20626;-75
2023/01/14 12:07:21;;;;;;;16.67;9.30;;;;;;;9.41;69.57;95067.34;5008753;28;20169;-74
2023/01/14 12:09:57;;;;;;;14.10;7.90;;;;;;;9.43;69.89;95064.50;5005751;28;20183;-74